sensor_id;sensor_type;location;lat;lon;timestamp;P1;durP1;ratioP1;P2;durP2;ratioP2
45049;SDS011;61798;48.048;-1.928;2022-12-11T01:28:10;70.60;;;40.97;;
45049;SDS011;61798;48.048;-1.928;2022-12-11T08:41:52;77.93;;;40.80;;
45049;SDS011;61798;48.048;-1.928;2022-12-11T08:44:53;77.70;;;43.53;;
45049;SDS011;61798;48.048;-1.928;2022-12-11T08:47:39;77.75;;;43.00;;
45049;SDS011;61798;48.048;-1.928;2022-12-11T08:50:11;86.45;;;51.50;;
45049;SDS011;61798;48.048;-1.928;2022-12-11T08:53:33;65.38;;;34.97;;
45049;SDS011;61798;48.048;-1.928;2022-12-11T08:56:56;58.10;;;32.50;;
45049;SDS011;61798;48.048;-1.928;2022-12-11T08:59:42;60.30;;;31.58;;
45049;SDS011;61798;48.048;-1.928;2022-12-11T09:02:44;61.38;;;34.17;;
45049;SDS011;61798;48.048;-1.928;2022-12-11T09:08:19;61.78;;;33.47;;
45049;SDS011;61798;48.048;-1.928;2022-12-11T09:11:09;63.13;;;34.15;;
45049;SDS011;61798;48.048;-1.928;2022-12-11T09:14:01;58.97;;;33.20;;
45049;SDS011;61798;48.048;-1.928;2022-12-11T09:16:31;60.97;;;33.38;;
45049;SDS011;61798;48.048;-1.928;2022-12-11T09:23:40;63.10;;;33.78;;
45049;SDS011;61798;48.048;-1.928;2022-12-11T09:31:11;66.10;;;33.72;;
45049;SDS011;61798;48.048;-1.928;2022-12-11T09:33:33;59.35;;;32.92;;
45049;SDS011;61798;48.048;-1.928;2022-12-11T09:36:29;182.95;;;39.17;;
45049;SDS011;61798;48.048;-1.928;2022-12-11T10:17:36;215.43;;;40.17;;
45049;SDS011;61798;48.048;-1.928;2022-12-11T10:21:04;273.58;;;44.60;;
45049;SDS011;61798;48.048;-1.928;2022-12-11T10:23:31;50.78;;;29.63;;
45049;SDS011;61798;48.048;-1.928;2022-12-11T10:26:20;53.10;;;29.27;;
45049;SDS011;61798;48.048;-1.928;2022-12-11T10:28:35;171.07;;;37.45;;
45049;SDS011;61798;48.048;-1.928;2022-12-11T10:34:10;67.68;;;32.03;;
45049;SDS011;61798;48.048;-1.928;2022-12-11T10:36:44;242.40;;;41.67;;
45049;SDS011;61798;48.048;-1.928;2022-12-11T10:41:44;70.57;;;32.28;;
45049;SDS011;61798;48.048;-1.928;2022-12-11T10:44:28;68.95;;;40.15;;
45049;SDS011;61798;48.048;-1.928;2022-12-11T10:51:14;61.30;;;38.78;;
45049;SDS011;61798;48.048;-1.928;2022-12-11T11:03:39;81.90;;;27.15;;
45049;SDS011;61798;48.048;-1.928;2022-12-11T11:06:35;45.25;;;26.70;;
45049;SDS011;61798;48.048;-1.928;2022-12-11T12:40:38;37.65;;;24.90;;
45049;SDS011;61798;48.048;-1.928;2022-12-11T13:14:34;34.95;;;20.05;;
45049;SDS011;61798;48.048;-1.928;2022-12-11T13:17:07;37.33;;;20.50;;
45049;SDS011;61798;48.048;-1.928;2022-12-11T13:20:20;31.73;;;17.77;;
45049;SDS011;61798;48.048;-1.928;2022-12-11T13:23:13;31.85;;;20.70;;
45049;SDS011;61798;48.048;-1.928;2022-12-11T13:26:37;32.47;;;19.50;;
45049;SDS011;61798;48.048;-1.928;2022-12-11T13:29:26;30.88;;;18.88;;
45049;SDS011;61798;48.048;-1.928;2022-12-11T13:33:05;38.20;;;21.58;;
45049;SDS011;61798;48.048;-1.928;2022-12-11T13:38:45;33.00;;;18.67;;
45049;SDS011;61798;48.048;-1.928;2022-12-11T13:49:02;28.35;;;16.20;;
45049;SDS011;61798;48.048;-1.928;2022-12-11T13:52:27;24.95;;;15.90;;
45049;SDS011;61798;48.048;-1.928;2022-12-11T13:55:33;32.20;;;18.02;;
45049;SDS011;61798;48.048;-1.928;2022-12-11T13:58:13;28.33;;;16.38;;
45049;SDS011;61798;48.048;-1.928;2022-12-11T14:00:38;28.30;;;18.35;;
45049;SDS011;61798;48.048;-1.928;2022-12-11T14:03:11;29.90;;;15.73;;
45049;SDS011;61798;48.048;-1.928;2022-12-11T14:09:45;29.00;;;15.90;;
45049;SDS011;61798;48.048;-1.928;2022-12-11T14:13:03;31.75;;;18.30;;
45049;SDS011;61798;48.048;-1.928;2022-12-11T14:29:43;25.80;;;16.27;;
45049;SDS011;61798;48.048;-1.928;2022-12-11T14:33:03;30.75;;;17.52;;
45049;SDS011;61798;48.048;-1.928;2022-12-11T14:36:15;26.92;;;17.15;;
45049;SDS011;61798;48.048;-1.928;2022-12-11T14:42:20;33.78;;;21.20;;
45049;SDS011;61798;48.048;-1.928;2022-12-11T14:56:55;27.48;;;15.32;;
45049;SDS011;61798;48.048;-1.928;2022-12-11T15:00:33;24.25;;;14.85;;
45049;SDS011;61798;48.048;-1.928;2022-12-11T15:07:56;24.30;;;16.05;;
45049;SDS011;61798;48.048;-1.928;2022-12-11T15:11:47;28.40;;;15.75;;
45049;SDS011;61798;48.048;-1.928;2022-12-11T15:14:58;24.33;;;14.98;;
45049;SDS011;61798;48.048;-1.928;2022-12-11T15:25:23;29.30;;;17.88;;
45049;SDS011;61798;48.048;-1.928;2022-12-11T15:28:39;31.33;;;17.85;;
45049;SDS011;61798;48.048;-1.928;2022-12-11T16:04:18;29.65;;;17.52;;
45049;SDS011;61798;48.048;-1.928;2022-12-11T16:08:16;27.88;;;16.85;;
45049;SDS011;61798;48.048;-1.928;2022-12-11T16:10:55;30.80;;;18.70;;
45049;SDS011;61798;48.048;-1.928;2022-12-11T16:13:42;27.27;;;15.77;;
45049;SDS011;61798;48.048;-1.928;2022-12-11T16:15:55;26.75;;;15.43;;
45049;SDS011;61798;48.048;-1.928;2022-12-11T16:18:08;24.08;;;13.93;;
45049;SDS011;61798;48.048;-1.928;2022-12-11T16:21:05;22.75;;;12.60;;
45049;SDS011;61798;48.048;-1.928;2022-12-11T16:23:34;23.77;;;12.90;;
45049;SDS011;61798;48.048;-1.928;2022-12-11T16:26:08;22.98;;;13.00;;
45049;SDS011;61798;48.048;-1.928;2022-12-11T16:28:30;23.73;;;13.82;;
45049;SDS011;61798;48.048;-1.928;2022-12-11T16:31:00;27.33;;;15.32;;
45049;SDS011;61798;48.048;-1.928;2022-12-11T16:33:31;40.20;;;14.40;;
45049;SDS011;61798;48.048;-1.928;2022-12-11T16:35:59;37.63;;;12.88;;
45049;SDS011;61798;48.048;-1.928;2022-12-11T16:38:54;21.25;;;13.15;;
45049;SDS011;61798;48.048;-1.928;2022-12-11T16:42:07;29.75;;;13.75;;
45049;SDS011;61798;48.048;-1.928;2022-12-11T17:08:03;28.77;;;16.85;;
45049;SDS011;61798;48.048;-1.928;2022-12-11T17:11:49;29.85;;;15.70;;
45049;SDS011;61798;48.048;-1.928;2022-12-11T17:18:00;26.67;;;16.13;;
45049;SDS011;61798;48.048;-1.928;2022-12-11T17:21:30;32.80;;;17.55;;
45049;SDS011;61798;48.048;-1.928;2022-12-11T17:24:49;31.73;;;17.77;;
45049;SDS011;61798;48.048;-1.928;2022-12-11T17:31:06;37.75;;;19.50;;
45049;SDS011;61798;48.048;-1.928;2022-12-11T17:37:45;54.20;;;24.65;;
45049;SDS011;61798;48.048;-1.928;2022-12-11T17:40:58;41.78;;;21.70;;
45049;SDS011;61798;48.048;-1.928;2022-12-11T17:47:45;40.75;;;20.33;;
45049;SDS011;61798;48.048;-1.928;2022-12-11T17:50:53;36.85;;;18.05;;
45049;SDS011;61798;48.048;-1.928;2022-12-11T17:58:18;34.00;;;18.55;;
45049;SDS011;61798;48.048;-1.928;2022-12-11T18:06:05;36.05;;;19.13;;
45049;SDS011;61798;48.048;-1.928;2022-12-11T18:09:44;32.47;;;19.23;;
45049;SDS011;61798;48.048;-1.928;2022-12-11T18:16:30;32.47;;;18.25;;
45049;SDS011;61798;48.048;-1.928;2022-12-11T18:19:45;33.90;;;18.02;;
45049;SDS011;61798;48.048;-1.928;2022-12-11T18:34:25;31.10;;;18.02;;
45049;SDS011;61798;48.048;-1.928;2022-12-11T18:38:13;31.90;;;16.92;;
45049;SDS011;61798;48.048;-1.928;2022-12-11T18:45:26;29.42;;;17.75;;
45049;SDS011;61798;48.048;-1.928;2022-12-11T18:49:16;36.08;;;19.50;;
45049;SDS011;61798;48.048;-1.928;2022-12-11T18:53:14;31.77;;;18.80;;
45049;SDS011;61798;48.048;-1.928;2022-12-11T19:00:18;30.00;;;17.63;;
45049;SDS011;61798;48.048;-1.928;2022-12-11T19:04:19;29.50;;;17.23;;
45049;SDS011;61798;48.048;-1.928;2022-12-11T19:19:12;34.72;;;19.05;;
45049;SDS011;61798;48.048;-1.928;2022-12-11T19:21:55;35.92;;;19.73;;
45049;SDS011;61798;48.048;-1.928;2022-12-11T19:25:16;36.25;;;20.08;;
45049;SDS011;61798;48.048;-1.928;2022-12-11T19:32:44;36.53;;;19.75;;
45049;SDS011;61798;48.048;-1.928;2022-12-11T19:36:26;35.45;;;20.77;;
45049;SDS011;61798;48.048;-1.928;2022-12-11T19:41:47;37.85;;;20.13;;
45049;SDS011;61798;48.048;-1.928;2022-12-11T19:47:42;40.55;;;21.05;;
45049;SDS011;61798;48.048;-1.928;2022-12-11T19:50:35;40.90;;;22.60;;
45049;SDS011;61798;48.048;-1.928;2022-12-11T19:53:48;41.72;;;23.20;;
45049;SDS011;61798;48.048;-1.928;2022-12-11T19:57:40;44.25;;;22.55;;
45049;SDS011;61798;48.048;-1.928;2022-12-11T20:00:20;39.20;;;19.85;;
45049;SDS011;61798;48.048;-1.928;2022-12-11T20:04:20;37.95;;;20.58;;
45049;SDS011;61798;48.048;-1.928;2022-12-11T20:07:46;30.63;;;16.65;;
45049;SDS011;61798;48.048;-1.928;2022-12-11T20:11:38;30.15;;;15.68;;
45049;SDS011;61798;48.048;-1.928;2022-12-11T20:14:34;26.60;;;15.77;;
45049;SDS011;61798;48.048;-1.928;2022-12-11T20:17:37;26.35;;;14.73;;
45049;SDS011;61798;48.048;-1.928;2022-12-11T20:20:46;29.25;;;15.50;;
45049;SDS011;61798;48.048;-1.928;2022-12-11T20:23:09;26.45;;;14.57;;
45049;SDS011;61798;48.048;-1.928;2022-12-11T20:25:57;26.23;;;14.70;;
45049;SDS011;61798;48.048;-1.928;2022-12-11T20:30:43;30.77;;;15.88;;
45049;SDS011;61798;48.048;-1.928;2022-12-11T20:33:16;29.98;;;16.20;;
45049;SDS011;61798;48.048;-1.928;2022-12-11T20:36:16;25.55;;;15.45;;
45049;SDS011;61798;48.048;-1.928;2022-12-11T20:39:36;27.73;;;15.38;;
45049;SDS011;61798;48.048;-1.928;2022-12-11T20:43:19;33.50;;;18.35;;
45049;SDS011;61798;48.048;-1.928;2022-12-11T20:49:22;34.83;;;18.20;;
45049;SDS011;61798;48.048;-1.928;2022-12-11T20:52:13;31.98;;;17.23;;
45049;SDS011;61798;48.048;-1.928;2022-12-11T20:54:48;31.75;;;16.83;;
45049;SDS011;61798;48.048;-1.928;2022-12-11T20:57:53;29.33;;;16.20;;
45049;SDS011;61798;48.048;-1.928;2022-12-11T21:00:57;29.70;;;16.25;;
45049;SDS011;61798;48.048;-1.928;2022-12-11T21:03:15;25.40;;;15.57;;
45049;SDS011;61798;48.048;-1.928;2022-12-11T21:05:58;32.88;;;15.85;;
45049;SDS011;61798;48.048;-1.928;2022-12-11T21:09:11;28.48;;;16.55;;
45049;SDS011;61798;48.048;-1.928;2022-12-11T21:12:12;29.55;;;17.80;;
45049;SDS011;61798;48.048;-1.928;2022-12-11T21:15:51;31.67;;;18.05;;
45049;SDS011;61798;48.048;-1.928;2022-12-11T21:19:49;33.58;;;17.92;;
45049;SDS011;61798;48.048;-1.928;2022-12-11T21:33:16;30.73;;;16.67;;
45049;SDS011;61798;48.048;-1.928;2022-12-11T21:36:52;34.50;;;18.33;;
45049;SDS011;61798;48.048;-1.928;2022-12-11T21:44:36;27.90;;;16.15;;
45049;SDS011;61798;48.048;-1.928;2022-12-11T21:48:36;33.92;;;18.77;;
45049;SDS011;61798;48.048;-1.928;2022-12-11T21:55:42;26.95;;;14.95;;
45049;SDS011;61798;48.048;-1.928;2022-12-11T21:59:51;30.42;;;16.00;;
45049;SDS011;61798;48.048;-1.928;2022-12-11T22:04:06;30.80;;;16.58;;
45049;SDS011;61798;48.048;-1.928;2022-12-11T22:18:42;26.13;;;14.65;;
45049;SDS011;61798;48.048;-1.928;2022-12-11T22:25:12;24.30;;;13.93;;
45049;SDS011;61798;48.048;-1.928;2022-12-11T22:36:26;28.65;;;15.25;;
45049;SDS011;61798;48.048;-1.928;2022-12-11T22:40:02;23.42;;;13.07;;
45049;SDS011;61798;48.048;-1.928;2022-12-11T22:43:36;28.70;;;14.63;;
45049;SDS011;61798;48.048;-1.928;2022-12-11T22:46:29;25.98;;;14.43;;
45049;SDS011;61798;48.048;-1.928;2022-12-11T22:49:49;27.90;;;15.40;;
45049;SDS011;61798;48.048;-1.928;2022-12-11T22:52:40;22.23;;;13.82;;
45049;SDS011;61798;48.048;-1.928;2022-12-11T22:55:30;23.30;;;13.95;;
45049;SDS011;61798;48.048;-1.928;2022-12-11T22:57:57;20.10;;;12.88;;
45049;SDS011;61798;48.048;-1.928;2022-12-11T23:00:11;24.73;;;13.85;;
45049;SDS011;61798;48.048;-1.928;2022-12-11T23:05:18;24.70;;;13.70;;
45049;SDS011;61798;48.048;-1.928;2022-12-11T23:08:19;22.92;;;13.27;;
45049;SDS011;61798;48.048;-1.928;2022-12-11T23:10:49;26.15;;;13.60;;
45049;SDS011;61798;48.048;-1.928;2022-12-11T23:14:30;23.00;;;12.63;;
45049;SDS011;61798;48.048;-1.928;2022-12-11T23:16:48;24.85;;;14.45;;
45049;SDS011;61798;48.048;-1.928;2022-12-11T23:19:28;23.70;;;14.20;;
45049;SDS011;61798;48.048;-1.928;2022-12-11T23:22:23;25.20;;;14.40;;
45049;SDS011;61798;48.048;-1.928;2022-12-11T23:25:14;24.05;;;13.00;;
45049;SDS011;61798;48.048;-1.928;2022-12-11T23:28:03;24.15;;;13.55;;
45049;SDS011;61798;48.048;-1.928;2022-12-11T23:33:49;24.63;;;13.68;;
45049;SDS011;61798;48.048;-1.928;2022-12-11T23:36:32;27.50;;;17.27;;
45049;SDS011;61798;48.048;-1.928;2022-12-11T23:38:52;35.13;;;20.15;;
45049;SDS011;61798;48.048;-1.928;2022-12-11T23:41:24;32.53;;;19.17;;
45049;SDS011;61798;48.048;-1.928;2022-12-11T23:43:55;34.33;;;20.05;;
45049;SDS011;61798;48.048;-1.928;2022-12-11T23:47:09;37.42;;;18.58;;
45049;SDS011;61798;48.048;-1.928;2022-12-11T23:58:09;27.98;;;17.05;;
